createdAt,value
2022-08-05T00:01:29.278Z,43.28
2022-08-05T00:04:02.293Z,43.25
2022-08-05T00:06:35.908Z,43.44
2022-08-05T00:09:13.030Z,43.61
2022-08-05T00:11:49.514Z,43.63
2022-08-05T00:14:19.814Z,43.64
2022-08-05T00:16:54.067Z,43.59
2022-08-05T00:19:32.780Z,43.73
2022-08-05T00:22:02.346Z,43.82
2022-08-05T00:24:35.715Z,44.05
2022-08-05T00:27:16.549Z,44.09
2022-08-05T00:29:45.729Z,44.37
2022-08-05T00:32:19.105Z,44.23
2022-08-05T00:35:05.729Z,44.56
2022-08-05T00:37:27.530Z,44.71
2022-08-05T00:40:02.194Z,44.94
2022-08-05T00:42:38.949Z,45.20
2022-08-05T00:45:13.664Z,45.45
2022-08-05T00:47:56.640Z,45.56
2022-08-05T00:50:25.403Z,45.85
2022-08-05T00:52:59.042Z,45.94
2022-08-05T00:55:33.965Z,45.63
2022-08-05T00:58:07.220Z,45.99
2022-08-05T01:00:42.714Z,46.25
2022-08-05T01:03:22.665Z,46.05
2022-08-05T01:05:51.285Z,46.47
2022-08-05T01:08:42.276Z,45.82
2022-08-05T01:11:03.116Z,46.60
2022-08-05T01:13:58.539Z,46.20
2022-08-05T01:16:21.656Z,46.13
2022-08-05T01:18:59.287Z,46.04
2022-08-05T01:21:38.854Z,46.28
2022-08-05T01:24:17.754Z,42.09
2022-08-05T01:27:00.881Z,45.55
2022-08-05T01:29:38.479Z,45.41
2022-08-05T01:32:18.661Z,44.96
2022-08-05T01:34:50.718Z,41.39
2022-08-05T01:37:27.726Z,44.06
2022-08-05T01:40:00.102Z,44.59
2022-08-05T01:42:36.334Z,41.03
2022-08-05T01:45:12.568Z,44.62
2022-08-05T01:47:49.806Z,45.47
2022-08-05T01:50:29.664Z,45.30
2022-08-05T01:53:05.859Z,45.57
2022-08-05T01:55:43.589Z,45.44
2022-08-05T01:58:18.448Z,45.42
2022-08-05T02:00:55.209Z,45.54
2022-08-05T02:03:34.132Z,46.25
2022-08-05T02:06:24.107Z,46.35
2022-08-05T02:08:58.281Z,46.79
2022-08-05T02:11:23.921Z,47.23
2022-08-05T02:13:59.718Z,47.50
2022-08-05T02:16:36.591Z,47.20
2022-08-05T02:19:14.063Z,47.65
2022-08-05T02:21:51.986Z,47.68
2022-08-05T02:24:28.147Z,47.77
2022-08-05T02:27:10.311Z,47.95
2022-08-05T02:29:59.782Z,48.07
2022-08-05T02:32:29.454Z,48.03
2022-08-05T02:35:13.433Z,48.35
2022-08-05T02:37:47.917Z,48.38
2022-08-05T02:40:22.808Z,48.49
2022-08-05T02:43:01.816Z,48.65
2022-08-05T02:45:52.519Z,48.81
2022-08-05T02:48:18.449Z,49.03
2022-08-05T02:50:55.767Z,49.20
2022-08-05T02:53:39.056Z,49.17
2022-08-05T02:56:15.674Z,49.16
2022-08-05T02:58:51.388Z,49.31
2022-08-05T03:01:30.075Z,49.47
2022-08-05T03:04:12.108Z,49.67
2022-08-05T03:09:37.580Z,48.95
2022-08-05T03:12:09.191Z,49.65
2022-08-05T03:14:48.101Z,49.69
2022-08-05T03:17:23.560Z,49.90
2022-08-05T03:19:58.599Z,49.94
2022-08-05T03:22:32.780Z,49.85
2022-08-05T03:25:31.630Z,49.67
2022-08-05T03:27:59.897Z,49.68
2022-08-05T03:30:19.715Z,48.99
2022-08-05T03:32:54.699Z,49.01
2022-08-05T03:35:28.221Z,48.90
2022-08-05T03:38:02.669Z,48.91
2022-08-05T03:40:35.947Z,48.46
2022-08-05T03:43:58.566Z,48.08
2022-08-05T03:45:57.150Z,47.98
2022-08-05T03:48:21.995Z,48.11
2022-08-05T03:51:33.460Z,48.19
2022-08-05T03:56:01.099Z,48.18
2022-08-05T03:56:17.931Z,48.26
2022-08-05T03:58:52.676Z,48.31
2022-08-05T04:01:27.928Z,48.11
2022-08-05T04:04:10.118Z,47.92
2022-08-05T04:06:47.539Z,47.64
2022-08-05T04:09:20.214Z,47.44
2022-08-05T04:11:52.835Z,47.50
2022-08-05T04:14:29.572Z,47.47
2022-08-05T04:17:03.536Z,47.51
2022-08-05T04:19:44.354Z,47.48
2022-08-05T04:22:20.429Z,47.25
2022-08-05T04:24:53.212Z,47.20
2022-08-05T04:27:41.882Z,47.17
2022-08-05T04:30:03.857Z,47.15
2022-08-05T04:35:19.796Z,47.21
2022-08-05T04:38:02.214Z,47.35
2022-08-05T04:40:28.528Z,47.95
2022-08-05T04:43:02.734Z,47.63
2022-08-05T04:45:49.109Z,47.80
2022-08-05T04:48:18.676Z,47.90
2022-08-05T04:51:02.773Z,48.01
2022-08-05T04:53:26.214Z,48.13
2022-08-05T04:56:33.123Z,48.03
2022-08-05T04:58:34.804Z,48.01
2022-08-05T05:01:10.188Z,48.05
2022-08-05T05:03:45.191Z,48.04
2022-08-05T05:06:40.163Z,47.89
2022-08-05T05:08:55.266Z,47.52
2022-08-05T05:14:15.238Z,47.37
2022-08-05T05:16:45.650Z,47.09
2022-08-05T05:19:23.576Z,47.14
2022-08-05T05:21:58.483Z,46.59
2022-08-05T05:24:57.955Z,46.48
2022-08-05T05:27:11.280Z,46.16
2022-08-05T05:30:04.908Z,45.90
2022-08-05T05:32:21.357Z,45.80
2022-08-05T05:34:56.045Z,45.42
2022-08-05T05:37:37.460Z,45.40
2022-08-05T05:40:05.260Z,45.54
2022-08-05T05:42:41.566Z,45.51
2022-08-05T05:45:16.560Z,45.20
2022-08-05T05:48:06.795Z,44.96
2022-08-05T05:50:25.878Z,44.95
2022-08-05T05:52:59.247Z,45.06
2022-08-05T05:55:51.873Z,44.99
2022-08-05T05:58:07.470Z,44.75
2022-08-05T06:00:45.884Z,44.60
2022-08-05T06:03:40.210Z,44.34
2022-08-05T06:05:54.190Z,44.16
2022-08-05T06:08:31.575Z,44.04
2022-08-05T06:11:06.354Z,43.74
2022-08-05T06:13:53.673Z,43.19
2022-08-05T06:16:29.830Z,42.86
2022-08-05T06:18:54.064Z,42.24
2022-08-05T06:21:37.106Z,41.64
2022-08-05T06:24:04.396Z,41.00
2022-08-05T06:26:37.901Z,40.66
2022-08-05T06:29:42.948Z,39.87
2022-08-05T06:31:46.439Z,39.59
2022-08-05T06:34:21.244Z,39.17
2022-08-05T06:36:57.985Z,38.23
2022-08-05T06:39:30.464Z,37.87
2022-08-05T06:42:05.624Z,37.51
2022-08-05T06:44:39.285Z,37.65
2022-08-05T06:47:30.051Z,37.84
2022-08-05T06:50:01.880Z,38.08
2022-08-05T06:52:36.389Z,37.87
2022-08-05T06:55:00.445Z,37.82
2022-08-05T06:58:02.724Z,37.93
2022-08-05T07:00:14.858Z,38.01
2022-08-05T07:02:53.973Z,38.86
2022-08-05T07:05:31.840Z,39.41
2022-08-05T07:08:01.122Z,39.40
2022-08-05T07:10:36.277Z,39.18
2022-08-05T07:13:46.382Z,36.01
2022-08-05T07:17:55.893Z,34.50
2022-08-05T07:18:55.713Z,31.05
2022-08-05T07:21:29.263Z,28.71
2022-08-05T07:24:04.917Z,27.64
2022-08-05T07:26:40.262Z,26.43
2022-08-05T07:29:13.780Z,25.46
2022-08-05T07:31:55.036Z,25.42
2022-08-05T07:34:26.217Z,24.89
2022-08-05T07:36:57.899Z,24.28
2022-08-05T07:40:25.974Z,23.71
2022-08-05T07:42:15.114Z,22.86
2022-08-05T07:44:42.942Z,23.38
2022-08-05T07:47:18.169Z,23.04
2022-08-05T07:49:54.247Z,22.35
2022-08-05T07:52:26.890Z,22.51
2022-08-05T07:55:00.068Z,21.31
2022-08-05T07:57:51.334Z,20.58
2022-08-05T08:00:16.424Z,20.97
2022-08-05T08:03:14.821Z,21.26
2022-08-05T08:05:26.729Z,21.34
2022-08-05T08:08:00.798Z,21.33
2022-08-05T08:10:34.283Z,22.06
2022-08-05T08:13:09.638Z,22.04
2022-08-05T08:16:34.808Z,21.97
2022-08-05T08:18:20.987Z,21.25
2022-08-05T08:21:02.449Z,20.35
2022-08-05T08:24:02.599Z,20.07
2022-08-05T08:26:05.650Z,19.74
2022-08-05T08:28:55.224Z,19.33
2022-08-05T08:33:57.907Z,20.15
2022-08-05T08:36:49.140Z,19.47
2022-08-05T08:39:15.074Z,20.09
2022-08-05T08:41:50.774Z,20.25
2022-08-05T08:45:16.775Z,20.68
2022-08-05T08:47:01.596Z,19.60
2022-08-05T08:50:22.880Z,18.64
2022-08-05T08:52:17.763Z,18.12
2022-08-05T08:54:53.666Z,18.12
2022-08-05T08:57:41.987Z,16.79
2022-08-05T09:00:04.300Z,17.18
2022-08-05T09:02:37.552Z,17.13
2022-08-05T09:05:17.420Z,16.75
2022-08-05T09:07:56.978Z,16.33
2022-08-05T09:10:27.014Z,16.36
2022-08-05T09:13:05.260Z,17.11
2022-08-05T09:15:37.197Z,16.70
2022-08-05T09:18:13.484Z,16.53
2022-08-05T09:20:47.413Z,16.27
2022-08-05T09:23:22.161Z,18.02
2022-08-05T09:26:09.251Z,15.45
2022-08-05T09:28:41.775Z,14.96
2022-08-05T09:31:22.481Z,18.36
2022-08-05T09:33:53.773Z,16.05
2022-08-05T09:36:33.472Z,16.67
2022-08-05T09:39:16.571Z,16.77
2022-08-05T09:41:59.538Z,15.69
2022-08-05T09:44:41.790Z,15.68
2022-08-05T09:47:17.685Z,15.76
2022-08-05T09:49:54.905Z,16.31
2022-08-05T09:52:30.642Z,16.48
2022-08-05T09:55:06.242Z,16.87
2022-08-05T09:57:45.359Z,16.93
2022-08-05T10:00:24.748Z,17.08
2022-08-05T10:02:59.183Z,16.33
2022-08-05T10:05:33.513Z,15.06
2022-08-05T10:08:35.777Z,14.00
2022-08-05T10:10:43.525Z,13.60
2022-08-05T10:13:31.720Z,16.28
2022-08-05T10:16:05.201Z,13.73
2022-08-05T10:18:39.042Z,12.85
2022-08-05T10:21:16.442Z,15.97
2022-08-05T10:23:59.362Z,12.39
2022-08-05T10:26:32.386Z,12.43
2022-08-05T10:29:02.695Z,11.53
2022-08-05T10:32:54.723Z,11.46
2022-08-05T10:34:14.548Z,12.38
2022-08-05T10:36:50.917Z,13.09
2022-08-05T10:40:03.116Z,12.77
2022-08-05T10:42:05.498Z,12.54
2022-08-05T10:44:40.565Z,11.99
2022-08-05T10:47:26.073Z,11.61
2022-08-05T10:50:20.678Z,11.88
2022-08-05T10:52:46.928Z,12.04
2022-08-05T10:55:20.031Z,12.26
2022-08-05T10:58:11.386Z,11.86
2022-08-05T11:00:54.941Z,11.68
2022-08-05T11:03:27.086Z,11.75
2022-08-05T11:06:15.429Z,11.47
2022-08-05T11:09:05.289Z,12.93
2022-08-05T11:11:52.083Z,13.17
2022-08-05T11:14:49.404Z,13.97
2022-08-05T11:17:57.837Z,13.73
2022-08-05T11:20:11.150Z,14.51
2022-08-05T11:22:49.673Z,16.33
2022-08-05T11:26:05.273Z,17.27
2022-08-05T11:28:40.526Z,17.77
2022-08-05T11:31:58.023Z,18.54
2022-08-05T11:34:14.703Z,19.03
2022-08-05T11:36:52.998Z,17.15
2022-08-05T11:40:00.520Z,16.28
2022-08-05T11:42:27.906Z,16.38
2022-08-05T11:45:14.538Z,17.09
2022-08-05T11:47:48.263Z,16.29
2022-08-05T11:50:17.486Z,14.64
2022-08-05T11:52:57.544Z,13.63
2022-08-05T11:55:32.116Z,12.22
2022-08-05T11:58:10.567Z,11.57
2022-08-05T12:00:39.146Z,12.00
2022-08-05T12:03:29.284Z,12.02
2022-08-05T12:05:58.592Z,11.02
2022-08-05T12:08:33.029Z,10.97
2022-08-05T12:11:09.011Z,10.94
2022-08-05T12:13:48.422Z,10.13
2022-08-05T12:16:25.485Z,10.54
2022-08-05T12:21:45.480Z,13.57
2022-08-05T12:24:21.281Z,12.19
2022-08-05T12:26:57.131Z,12.16
2022-08-05T12:29:38.805Z,13.25
2022-08-05T12:32:07.590Z,13.52
2022-08-05T12:34:40.643Z,14.15
2022-08-05T12:37:29.741Z,16.20
2022-08-05T12:39:51.374Z,15.85
2022-08-05T12:42:25.249Z,15.25
2022-08-05T12:45:09.537Z,14.14
2022-08-05T12:48:01.735Z,14.88
2022-08-05T12:50:21.089Z,15.99
2022-08-05T12:53:00.645Z,16.81
2022-08-05T12:55:35.371Z,16.95
2022-08-05T12:58:49.608Z,15.33
2022-08-05T13:02:02.596Z,15.43
2022-08-05T13:03:24.884Z,15.62
2022-08-05T13:05:59.982Z,16.60
2022-08-05T13:08:34.480Z,17.14
2022-08-05T13:11:08.009Z,18.09
2022-08-05T13:14:06.301Z,19.50
2022-08-05T13:16:19.574Z,20.45
2022-08-05T13:18:58.955Z,21.21
2022-08-05T13:21:37.728Z,21.71
2022-08-05T13:24:09.061Z,22.21
2022-08-05T13:26:42.517Z,22.46
2022-08-05T13:29:19.235Z,22.69
2022-08-05T13:32:04.047Z,22.48
2022-08-05T13:34:27.721Z,22.50
2022-08-05T13:37:01.014Z,22.78
2022-08-05T13:40:14.514Z,22.29
2022-08-05T13:42:14.607Z,22.34
2022-08-05T13:44:48.052Z,22.29
2022-08-05T13:47:36.113Z,22.39
2022-08-05T13:49:56.787Z,22.54
2022-08-05T13:52:30.576Z,22.26
2022-08-05T13:55:07.755Z,22.08
2022-08-05T13:57:50.899Z,22.10
2022-08-05T14:00:17.977Z,20.61
2022-08-05T14:02:51.296Z,19.67
2022-08-05T14:05:48.262Z,19.22
2022-08-05T14:08:05.726Z,18.70
2022-08-05T14:10:35.579Z,18.47
2022-08-05T14:13:10.662Z,19.23
2022-08-05T14:16:08.684Z,19.72
2022-08-05T14:18:23.236Z,19.92
2022-08-05T14:20:55.603Z,19.04
2022-08-05T14:23:36.318Z,17.66
2022-08-05T14:26:04.965Z,17.35
2022-08-05T14:28:52.279Z,16.97
2022-08-05T14:31:17.574Z,16.32
2022-08-05T14:33:59.095Z,15.72
2022-08-05T14:36:25.112Z,15.50
2022-08-05T14:39:02.762Z,15.82
2022-08-05T14:41:36.356Z,15.79
2022-08-05T14:44:20.680Z,15.57
2022-08-05T14:46:45.198Z,15.67
2022-08-05T14:49:19.300Z,15.68
2022-08-05T14:51:52.956Z,16.06
2022-08-05T14:54:30.294Z,15.38
2022-08-05T14:57:05.156Z,15.40
2022-08-05T14:59:37.296Z,15.58
2022-08-05T15:02:14.838Z,15.83
2022-08-05T15:04:47.853Z,16.04
2022-08-05T15:08:06.114Z,16.24
2022-08-05T15:09:57.624Z,16.18
2022-08-05T15:12:57.665Z,16.03
2022-08-05T15:15:13.626Z,17.43
2022-08-05T15:17:51.257Z,18.01
2022-08-05T15:20:25.053Z,17.95
2022-08-05T15:23:00.249Z,18.66
2022-08-05T15:25:51.570Z,19.01
2022-08-05T15:28:14.332Z,18.98
2022-08-05T15:34:18.579Z,18.15
2022-08-05T15:36:04.627Z,18.33
2022-08-05T15:38:41.299Z,17.91
2022-08-05T15:41:22.446Z,18.36
2022-08-05T15:43:48.828Z,18.73
2022-08-05T15:46:24.457Z,18.94
2022-08-05T15:49:10.451Z,19.25
2022-08-05T15:52:04.136Z,19.29
2022-08-05T15:54:15.136Z,19.70
2022-08-05T15:56:49.175Z,19.59
2022-08-05T15:59:22.673Z,19.96
2022-08-05T16:01:56.737Z,20.65
2022-08-05T16:04:31.712Z,21.31
2022-08-05T16:07:06.058Z,21.88
2022-08-05T16:09:42.053Z,22.10
2022-08-05T16:12:17.435Z,22.48
2022-08-05T16:14:53.219Z,22.23
2022-08-05T16:17:26.416Z,22.43
2022-08-05T16:20:11.192Z,22.67
2022-08-05T16:22:39.194Z,23.23
2022-08-05T16:25:13.511Z,23.32
2022-08-05T16:28:02.231Z,23.48
2022-08-05T16:30:25.583Z,24.21
2022-08-05T16:32:58.163Z,24.22
2022-08-05T16:35:33.676Z,24.74
2022-08-05T16:38:24.167Z,25.00
2022-08-05T16:40:42.332Z,25.30
2022-08-05T16:43:17.534Z,25.19
2022-08-05T16:46:06.200Z,25.63
2022-08-05T16:48:33.813Z,25.82
2022-08-05T16:51:08.977Z,26.15
2022-08-05T16:54:05.090Z,26.37
2022-08-05T16:56:17.597Z,26.76
2022-08-05T16:58:51.684Z,26.90
2022-08-05T17:01:26.032Z,27.46
2022-08-05T17:03:59.796Z,27.40
2022-08-05T17:06:33.878Z,27.75
2022-08-05T17:09:08.744Z,28.08
2022-08-05T17:11:49.025Z,28.15
2022-08-05T17:14:34.183Z,28.47
2022-08-05T17:16:53.290Z,28.54
2022-08-05T17:19:27.607Z,28.88
2022-08-05T17:22:01.280Z,28.93
2022-08-05T17:24:42.346Z,28.97
2022-08-05T17:27:16.158Z,29.32
2022-08-05T17:29:59.523Z,29.30
2022-08-05T17:32:24.784Z,29.97
2022-08-05T17:34:58.764Z,30.03
2022-08-05T17:37:41.556Z,29.95
2022-08-05T17:40:12.462Z,30.21
2022-08-05T17:42:50.514Z,30.05
2022-08-05T17:45:38.007Z,29.50
2022-08-05T17:48:00.417Z,29.28
2022-08-05T17:50:34.066Z,29.67
2022-08-05T17:53:08.839Z,29.83
2022-08-05T17:55:43.101Z,29.93
2022-08-05T17:58:21.566Z,29.97
2022-08-05T18:00:53.893Z,29.90
2022-08-05T18:03:58.974Z,29.99
2022-08-05T18:06:11.396Z,30.17
2022-08-05T18:08:44.919Z,30.26
2022-08-05T18:11:23.391Z,30.11
2022-08-05T18:13:52.723Z,26.99
2022-08-05T18:16:26.365Z,29.96
2022-08-05T18:18:59.706Z,30.31
2022-08-05T18:22:09.324Z,30.47
2022-08-05T18:24:09.565Z,30.53
2022-08-05T18:26:45.113Z,30.42
2022-08-05T18:29:39.967Z,30.50
2022-08-05T18:31:55.460Z,31.53
2022-08-05T18:34:41.144Z,31.31
2022-08-05T18:37:05.875Z,30.97
2022-08-05T18:40:30.906Z,31.48
2022-08-05T18:44:58.277Z,30.52
2022-08-05T18:47:34.243Z,31.78
2022-08-05T18:50:45.385Z,31.77
2022-08-05T18:53:02.749Z,32.06
2022-08-05T18:55:37.869Z,32.32
2022-08-05T18:58:15.207Z,32.72
2022-08-05T19:00:48.064Z,32.90
2022-08-05T19:03:55.213Z,32.69
2022-08-05T19:06:12.905Z,32.21
2022-08-05T19:08:32.628Z,32.68
2022-08-05T19:11:07.354Z,32.78
2022-08-05T19:16:25.104Z,32.02
2022-08-05T19:18:59.423Z,33.18
2022-08-05T19:21:34.258Z,32.99
2022-08-05T19:24:12.664Z,33.60
2022-08-05T19:26:54.629Z,33.31
2022-08-05T19:29:19.413Z,33.90
2022-08-05T19:31:52.535Z,33.69
2022-08-05T19:34:55.265Z,33.57
2022-08-05T19:37:29.828Z,33.65
2022-08-05T19:40:01.448Z,33.64
2022-08-05T19:42:40.480Z,33.79
2022-08-05T19:45:14.887Z,34.10
2022-08-05T19:47:48.127Z,33.93
2022-08-05T19:50:24.117Z,34.30
2022-08-05T19:53:09.452Z,34.23
2022-08-05T19:56:13.686Z,34.69
2022-08-05T19:58:28.327Z,34.42
2022-08-05T20:00:52.194Z,34.85
2022-08-05T20:03:40.487Z,34.96
2022-08-05T20:06:15.477Z,35.17
2022-08-05T20:08:51.684Z,34.97
2022-08-05T20:11:29.066Z,35.08
2022-08-05T20:14:42.862Z,34.98
2022-08-05T20:17:24.034Z,35.13
2022-08-05T20:19:57.892Z,35.07
2022-08-05T20:22:31.354Z,35.13
2022-08-05T20:25:04.948Z,35.35
2022-08-05T20:27:41.855Z,35.46
2022-08-05T20:30:15.508Z,35.79
2022-08-05T20:32:50.753Z,35.66
2022-08-05T20:35:25.152Z,35.31
2022-08-05T20:38:07.633Z,35.59
2022-08-05T20:40:35.635Z,35.78
2022-08-05T20:43:10.639Z,35.94
2022-08-05T20:45:56.168Z,35.65
2022-08-05T20:48:22.689Z,35.82
2022-08-05T20:50:57.969Z,35.61
2022-08-05T20:53:37.137Z,35.62
2022-08-05T20:56:09.592Z,35.86
2022-08-05T20:58:43.689Z,35.84
2022-08-05T21:01:17.198Z,35.80
2022-08-05T21:03:50.939Z,35.90
2022-08-05T21:06:28.591Z,35.92
2022-08-05T21:09:00.305Z,36.19
2022-08-05T21:12:07.579Z,36.06
2022-08-05T21:14:09.259Z,36.39
2022-08-05T21:16:44.814Z,36.58
2022-08-05T21:19:18.360Z,36.62
2022-08-05T21:21:53.822Z,36.71
2022-08-05T21:24:30.032Z,36.45
2022-08-05T21:27:03.686Z,36.62
2022-08-05T21:29:40.974Z,36.66
2022-08-05T21:32:18.416Z,36.68
2022-08-05T21:35:08.661Z,36.76
2022-08-05T21:37:27.149Z,36.89
2022-08-05T21:40:00.830Z,36.68
2022-08-05T21:42:44.704Z,36.81
2022-08-05T21:45:12.302Z,37.24
2022-08-05T21:47:57.086Z,37.52
2022-08-05T21:50:26.218Z,37.33
2022-08-05T21:53:08.317Z,37.58
2022-08-05T21:56:01.758Z,37.69
2022-08-05T21:58:11.675Z,37.50
2022-08-05T22:00:51.319Z,37.54
2022-08-05T22:03:52.255Z,37.72
2022-08-05T22:05:56.188Z,37.94
2022-08-05T22:08:29.713Z,37.86
2022-08-05T22:11:08.752Z,38.29
2022-08-05T22:14:32.350Z,38.27
2022-08-05T22:16:41.271Z,38.12
2022-08-05T22:18:58.782Z,38.44
2022-08-05T22:21:32.130Z,38.97
2022-08-05T22:24:40.819Z,38.66
2022-08-05T22:27:19.036Z,38.92
2022-08-05T22:29:54.106Z,39.26
2022-08-05T22:32:28.327Z,39.15
2022-08-05T22:35:02.103Z,39.18
2022-08-05T22:37:58.702Z,39.43
2022-08-05T22:40:16.727Z,39.66
2022-08-05T22:42:57.972Z,39.37
2022-08-05T22:45:26.470Z,39.29
2022-08-05T22:48:00.259Z,39.70
2022-08-05T22:50:33.732Z,39.66
2022-08-05T22:53:10.515Z,39.60
2022-08-05T22:55:56.964Z,40.04
2022-08-05T22:58:28.197Z,39.89
2022-08-05T23:00:56.947Z,40.25
2022-08-05T23:03:58.034Z,40.20
2022-08-05T23:06:06.284Z,40.30
2022-08-05T23:08:40.139Z,40.40
2022-08-05T23:11:14.076Z,40.12
2022-08-05T23:13:51.826Z,40.08
2022-08-05T23:16:55.998Z,40.11
2022-08-05T23:19:38.407Z,40.22
2022-08-05T23:22:10.693Z,40.33
2022-08-05T23:24:48.480Z,40.65
2022-08-05T23:27:22.706Z,40.67
2022-08-05T23:29:57.818Z,40.56
2022-08-05T23:32:31.891Z,40.39
2022-08-05T23:35:08.489Z,40.72
2022-08-05T23:37:42.628Z,41.06
2022-08-05T23:40:17.796Z,41.45
2022-08-05T23:42:55.614Z,41.48
2022-08-05T23:45:29.572Z,41.59
2022-08-05T23:48:05.073Z,41.78
2022-08-05T23:50:38.612Z,42.12
2022-08-05T23:53:22.429Z,42.11
2022-08-05T23:55:47.390Z,42.56
2022-08-05T23:58:31.280Z,42.92
